Time;durP1;ratioP1;P1;durP2;ratioP2;P2;SDS_P1;SDS_P2;PMS_P1;PMS_P2;Temp;Humidity;BMP_temperature;BMP_pressure;BME280_temperature;BME280_humidity;BME280_pressure;Samples;Min_cycle;Max_cycle;Signal;HPM_P1;HPM_P2
2024/01/05 00:01:25;;;;;;;17.15;7.32;;;;;;;;;;5019101;28;20038;-78
2024/01/05 00:03:51;;;;;;;18.17;7.25;;;;;;;;;;5016390;28;20072;-78
2024/01/05 00:06:18;;;;;;;17.70;6.60;;;;;;;;;;5010334;28;20054;-79
2024/01/05 00:08:44;;;;;;;14.18;7.40;;;;;;;;;;5009820;28;20108;-78
2024/01/05 00:11:16;;;;;;;18.73;7.25;;;;;;;;;;5011821;28;20025;-79
2024/01/05 00:13:42;;;;;;;18.00;7.03;;;;;;;;;;5023987;28;20034;-79
2024/01/05 00:16:08;;;;;;;19.58;7.43;;;;;;;;;;5033657;28;20128;-78
2024/01/05 00:18:36;;;;;;;19.50;8.27;;;;;;;;;;5020133;28;20040;-79
2024/01/05 00:21:02;;;;;;;19.73;7.70;;;;;;;;;;5009502;28;20034;-79
2024/01/05 00:23:28;;;;;;;19.67;7.32;;;;;;;;;;5014119;28;20033;-78
2024/01/05 00:25:55;;;;;;;18.27;7.50;;;;;;;;;;5009721;28;20026;-79
2024/01/05 00:28:21;;;;;;;19.35;6.55;;;;;;;;;;5020275;28;20100;-78
2024/01/05 00:30:47;;;;;;;18.98;7.82;;;;;;;;;;4996390;28;20049;-79
2024/01/05 00:33:13;;;;;;;20.73;7.53;;;;;;;;;;5017250;28;20040;-78
2024/01/05 00:35:39;;;;;;;20.50;7.57;;;;;;;;;;5010130;28;20125;-79
2024/01/05 00:38:05;;;;;;;13.68;6.43;;;;;;;;;;5024427;28;20029;-79
2024/01/05 00:40:31;;;;;;;24.25;8.65;;;;;;;;;;5013773;28;20038;-79
2024/01/05 00:42:57;;;;;;;11.63;7.15;;;;;;;;;;5021329;28;20124;-80
2024/01/05 00:45:23;;;;;;;17.15;8.00;;;;;;;;;;5016968;28;20577;-80
2024/01/05 00:47:49;;;;;;;15.55;7.82;;;;;;;;;;5016463;28;20053;-80
2024/01/05 00:50:15;;;;;;;11.60;7.47;;;;;;;;;;5009632;28;20502;-79
2024/01/05 00:52:42;;;;;;;16.70;8.57;;;;;;;;;;5024953;28;20025;-77
2024/01/05 00:55:08;;;;;;;13.90;7.90;;;;;;;;;;5021452;28;20025;-80
2024/01/05 00:57:34;;;;;;;14.55;8.20;;;;;;;;;;5012415;28;20041;-80
2024/01/05 01:00:00;;;;;;;14.18;7.75;;;;;;;;;;5022748;28;20032;-80
2024/01/05 01:02:26;;;;;;;13.52;8.02;;;;;;;;;;5015730;28;20058;-79
2024/01/05 01:04:52;;;;;;;14.43;7.80;;;;;;;;;;5012455;28;20108;-80
2024/01/05 01:07:19;;;;;;;19.98;9.10;;;;;;;;;;5014985;28;20458;-80
2024/01/05 01:09:45;;;;;;;23.23;9.35;;;;;;;;;;5016357;28;20129;-80
2024/01/05 01:12:11;;;;;;;13.90;7.82;;;;;;;;;;5016453;28;20464;-80
2024/01/05 01:14:37;;;;;;;18.50;8.75;;;;;;;;;;5013518;28;20026;-79
2024/01/05 01:17:03;;;;;;;16.20;6.88;;;;;;;;;;5027150;28;20471;-79
2024/01/05 01:19:29;;;;;;;16.27;7.55;;;;;;;;;;5031113;28;20048;-79
2024/01/05 01:21:55;;;;;;;14.60;8.00;;;;;;;;;;5028693;28;20021;-79
2024/01/05 01:24:21;;;;;;;17.20;8.50;;;;;;;;;;5043092;28;20029;-79
2024/01/05 01:26:47;;;;;;;21.25;8.45;;;;;;;;;;5026433;28;20439;-79
2024/01/05 01:29:13;;;;;;;21.10;8.30;;;;;;;;;;5028706;28;20024;-79
2024/01/05 01:31:39;;;;;;;24.13;8.00;;;;;;;;;;5013432;28;20556;-78
2024/01/05 01:34:05;;;;;;;21.00;9.02;;;;;;;;;;5022203;28;20244;-80
2024/01/05 01:36:31;;;;;;;13.70;7.97;;;;;;;;;;5015599;28;20041;-79
2024/01/05 01:38:57;;;;;;;16.25;8.60;;;;;;;;;;5019453;28;20088;-78
2024/01/05 01:41:23;;;;;;;15.75;8.60;;;;;;;;;;5022158;28;20083;-79
2024/01/05 01:43:49;;;;;;;17.02;8.57;;;;;;;;;;5024184;28;20034;-79
2024/01/05 01:46:15;;;;;;;19.20;8.70;;;;;;;;;;5021552;28;20034;-79
2024/01/05 01:48:44;;;;;;;18.55;8.02;;;;;;;;;;5032598;28;20030;-79
2024/01/05 01:51:10;;;;;;;17.70;7.53;;;;;;;;;;5012693;28;20034;-79
2024/01/05 01:53:36;;;;;;;17.50;7.80;;;;;;;;;;5027546;28;20034;-79
2024/01/05 01:56:03;;;;;;;13.55;7.38;;;;;;;;;;5018451;28;20032;-79
2024/01/05 01:58:29;;;;;;;18.25;8.82;;;;;;;;;;5017919;28;20384;-79
2024/01/05 02:00:55;;;;;;;19.05;8.43;;;;;;;;;;5028912;28;20060;-78
2024/01/05 02:03:21;;;;;;;21.60;11.02;;;;;;;;;;5018541;28;20040;-78
2024/01/05 02:05:48;;;;;;;18.70;8.70;;;;;;;;;;5033587;28;20061;-77
2024/01/05 02:08:15;;;;;;;17.70;8.30;;;;;;;;;;5030648;28;20104;-77
2024/01/05 02:10:41;;;;;;;19.30;9.07;;;;;;;;;;5020231;28;20035;-77
2024/01/05 02:13:07;;;;;;;19.40;10.50;;;;;;;;;;5030140;28;20033;-77
2024/01/05 02:15:33;;;;;;;18.10;9.02;;;;;;;;;;5014508;28;20040;-78
2024/01/05 02:17:59;;;;;;;14.40;8.98;;;;;;;;;;5015444;28;20026;-78
2024/01/05 02:20:25;;;;;;;17.10;10.23;;;;;;;;;;5017361;28;20030;-78
2024/01/05 02:22:54;;;;;;;17.42;9.32;;;;;;;;;;5001286;28;20419;-77
2024/01/05 02:25:20;;;;;;;19.17;10.85;;;;;;;;;;5018586;28;20094;-81
2024/01/05 02:27:46;;;;;;;17.45;11.27;;;;;;;;;;5010768;28;20033;-79
2024/01/05 02:30:18;;;;;;;20.98;10.32;;;;;;;;;;5020230;28;20038;-79
2024/01/05 02:32:44;;;;;;;20.98;10.60;;;;;;;;;;5029074;28;20041;-77
2024/01/05 02:35:10;;;;;;;17.92;9.73;;;;;;;;;;5022945;28;20034;-78
2024/01/05 02:37:36;;;;;;;22.08;9.90;;;;;;;;;;5027110;28;20029;-78
2024/01/05 02:40:03;;;;;;;20.73;10.30;;;;;;;;;;5022092;28;20033;-78
2024/01/05 02:42:29;;;;;;;21.65;11.82;;;;;;;;;;5024815;28;20116;-78
2024/01/05 02:44:55;;;;;;;15.55;9.88;;;;;;;;;;5020684;28;20026;-80
2024/01/05 02:47:21;;;;;;;22.67;9.40;;;;;;;;;;5019116;28;20026;-79
2024/01/05 02:49:47;;;;;;;17.77;10.07;;;;;;;;;;5010912;28;20049;-80
2024/01/05 02:52:13;;;;;;;18.10;10.35;;;;;;;;;;5017155;28;20033;-80
2024/01/05 02:54:39;;;;;;;19.45;9.98;;;;;;;;;;5021957;28;20049;-80
2024/01/05 02:57:05;;;;;;;17.25;10.63;;;;;;;;;;5016630;28;20030;-80
2024/01/05 02:59:31;;;;;;;17.23;9.63;;;;;;;;;;5011875;28;20029;-80
2024/01/05 03:01:57;;;;;;;34.17;9.98;;;;;;;;;;5023806;28;20057;-80
2024/01/05 03:04:23;;;;;;;17.23;9.85;;;;;;;;;;5042534;28;20029;-80
2024/01/05 03:06:49;;;;;;;20.88;9.63;;;;;;;;;;5020564;28;20049;-80
2024/01/05 03:09:16;;;;;;;16.92;9.63;;;;;;;;;;5013469;28;20582;-80
2024/01/05 03:11:42;;;;;;;15.63;9.40;;;;;;;;;;5015191;28;20037;-81
2024/01/05 03:14:08;;;;;;;23.00;10.25;;;;;;;;;;5031070;28;20368;-80
2024/01/05 03:16:34;;;;;;;18.25;10.30;;;;;;;;;;5027453;28;20029;-80
2024/01/05 03:19:00;;;;;;;18.10;9.85;;;;;;;;;;5031078;28;20072;-80
2024/01/05 03:21:26;;;;;;;19.48;9.48;;;;;;;;;;5020875;28;20034;-78
2024/01/05 03:23:52;;;;;;;14.15;9.27;;;;;;;;;;5014615;28;20044;-76
2024/01/05 03:26:18;;;;;;;14.75;8.43;;;;;;;;;;5012218;28;20022;-76
2024/01/05 03:28:44;;;;;;;15.45;8.82;;;;;;;;;;5010588;28;20503;-76
2024/01/05 03:31:13;;;;;;;16.15;9.35;;;;;;;;;;5021681;28;20041;-77
2024/01/05 03:33:44;;;;;;;18.08;9.35;;;;;;;;;;5015481;28;20034;-77
2024/01/05 03:36:10;;;;;;;13.05;8.57;;;;;;;;;;5024551;28;20034;-77
2024/01/05 03:38:36;;;;;;;19.65;8.68;;;;;;;;;;5012050;28;20042;-77
2024/01/05 03:41:03;;;;;;;20.85;8.95;;;;;;;;;;5030084;28;20029;-77
2024/01/05 03:43:29;;;;;;;15.85;8.82;;;;;;;;;;5013711;28;20145;-79
2024/01/05 03:45:56;;;;;;;14.15;8.18;;;;;;;;;;5015722;28;20064;-78
2024/01/05 03:48:22;;;;;;;16.70;9.70;;;;;;;;;;5020643;28;20382;-78
2024/01/05 03:50:48;;;;;;;14.10;8.43;;;;;;;;;;5016186;28;20033;-77
2024/01/05 03:53:15;;;;;;;13.57;7.85;;;;;;;;;;5016727;28;20108;-78
2024/01/05 03:55:41;;;;;;;19.02;9.77;;;;;;;;;;5015142;28;20109;-78
2024/01/05 03:58:07;;;;;;;13.77;8.32;;;;;;;;;;5010870;28;20034;-78
2024/01/05 04:00:33;;;;;;;14.10;8.18;;;;;;;;;;5016825;28;20048;-79
2024/01/05 04:02:59;;;;;;;13.88;8.50;;;;;;;;;;5021165;28;20102;-78
2024/01/05 04:05:26;;;;;;;17.20;9.15;;;;;;;;;;5027680;28;20040;-78
2024/01/05 04:07:52;;;;;;;16.17;8.63;;;;;;;;;;5020322;28;20116;-78
2024/01/05 04:10:18;;;;;;;14.48;8.80;;;;;;;;;;5010727;28;20057;-78
2024/01/05 04:12:44;;;;;;;15.27;8.10;;;;;;;;;;5020336;28;20522;-78
2024/01/05 04:15:10;;;;;;;15.85;8.55;;;;;;;;;;5011802;28;20026;-79
2024/01/05 04:17:36;;;;;;;17.02;8.68;;;;;;;;;;5014757;28;20119;-78
2024/01/05 04:20:02;;;;;;;12.48;7.93;;;;;;;;;;5022538;28;20044;-79
2024/01/05 04:22:30;;;;;;;18.17;8.57;;;;;;;;;;5021183;28;20924;-78
2024/01/05 04:24:57;;;;;;;14.05;8.27;;;;;;;;;;5009498;28;20037;-78
2024/01/05 04:27:23;;;;;;;17.77;9.23;;;;;;;;;;5010195;28;20069;-79
2024/01/05 04:29:49;;;;;;;14.90;8.90;;;;;;;;;;5023858;28;20053;-78
2024/01/05 04:32:15;;;;;;;15.68;9.32;;;;;;;;;;5028251;28;20452;-78
2024/01/05 04:34:41;;;;;;;16.65;9.00;;;;;;;;;;5014796;28;20045;-78
2024/01/05 04:37:08;;;;;;;14.68;8.82;;;;;;;;;;5017867;28;20049;-79
2024/01/05 04:39:34;;;;;;;15.48;8.93;;;;;;;;;;5021943;28;20033;-79
2024/01/05 04:42:01;;;;;;;12.68;8.50;;;;;;;;;;5009051;28;20080;-79
2024/01/05 04:44:27;;;;;;;14.65;7.78;;;;;;;;;;5029149;28;20033;-79
2024/01/05 04:46:53;;;;;;;13.30;7.95;;;;;;;;;;5010607;28;20018;-79
2024/01/05 04:49:19;;;;;;;13.05;7.70;;;;;;;;;;5009119;28;21051;-79
2024/01/05 04:51:45;;;;;;;12.98;8.10;;;;;;;;;;5009246;28;20373;-79
2024/01/05 04:54:11;;;;;;;14.90;8.40;;;;;;;;;;5015893;28;20045;-79
2024/01/05 04:56:37;;;;;;;14.98;8.15;;;;;;;;;;5012572;28;20037;-79
2024/01/05 04:59:03;;;;;;;17.73;9.05;;;;;;;;;;5013946;28;20072;-78
2024/01/05 05:01:30;;;;;;;11.60;7.45;;;;;;;;;;5018361;28;20048;-78
2024/01/05 05:03:56;;;;;;;14.85;8.68;;;;;;;;;;5027171;28;20025;-78
2024/01/05 05:06:22;;;;;;;16.85;9.30;;;;;;;;;;5014691;28;20045;-79
2024/01/05 05:08:48;;;;;;;15.00;8.65;;;;;;;;;;5024450;28;20084;-79
2024/01/05 05:11:14;;;;;;;16.23;9.48;;;;;;;;;;5024547;28;20025;-78
2024/01/05 05:13:40;;;;;;;22.65;10.70;;;;;;;;;;5024494;28;20065;-79
2024/01/05 05:16:06;;;;;;;16.80;9.77;;;;;;;;;;5019219;28;20154;-78
2024/01/05 05:18:32;;;;;;;15.02;8.80;;;;;;;;;;5028823;28;20105;-78
2024/01/05 05:20:58;;;;;;;17.92;10.00;;;;;;;;;;5016140;28;20064;-79
2024/01/05 05:23:24;;;;;;;16.30;9.50;;;;;;;;;;5014203;28;20033;-79
2024/01/05 05:25:50;;;;;;;16.08;9.57;;;;;;;;;;5012702;28;20029;-79
2024/01/05 05:28:16;;;;;;;14.15;9.82;;;;;;;;;;5027437;28;20038;-78
2024/01/05 05:30:43;;;;;;;17.00;9.63;;;;;;;;;;5025321;28;20068;-78
2024/01/05 05:33:09;;;;;;;18.42;9.85;;;;;;;;;;5021324;28;20037;-79
2024/01/05 05:35:35;;;;;;;19.40;9.85;;;;;;;;;;5021679;28;20739;-79
2024/01/05 05:38:04;;;;;;;17.00;10.20;;;;;;;;;;5021776;28;20549;-78
2024/01/05 05:40:30;;;;;;;20.30;10.52;;;;;;;;;;5020960;28;20075;-79
2024/01/05 05:42:56;;;;;;;12.77;8.75;;;;;;;;;;5013410;28;20091;-79
2024/01/05 05:45:22;;;;;;;19.75;10.75;;;;;;;;;;5012279;28;20030;-78
2024/01/05 05:47:48;;;;;;;20.95;11.70;;;;;;;;;;5015421;28;20155;-79
2024/01/05 05:50:14;;;;;;;17.27;10.73;;;;;;;;;;5011504;28;20058;-78
2024/01/05 05:52:41;;;;;;;20.10;10.05;;;;;;;;;;5024484;28;20038;-78
2024/01/05 05:55:11;;;;;;;17.75;11.20;;;;;;;;;;5025024;28;20152;-78
2024/01/05 05:57:37;;;;;;;18.77;10.82;;;;;;;;;;5017639;28;20040;-79
2024/01/05 06:00:05;;;;;;;21.70;12.30;;;;;;;;;;5028046;28;20032;-78
2024/01/05 06:02:31;;;;;;;23.67;11.48;;;;;;;;;;5029542;28;20037;-77
2024/01/05 06:04:57;;;;;;;16.73;10.25;;;;;;;;;;5033641;28;20018;-77
2024/01/05 06:07:24;;;;;;;20.38;11.25;;;;;;;;;;5031825;28;20054;-77
2024/01/05 06:09:50;;;;;;;16.02;10.95;;;;;;;;;;5032380;28;20026;-78
2024/01/05 06:12:17;;;;;;;19.80;12.23;;;;;;;;;;5016355;28;22191;-78
2024/01/05 06:14:43;;;;;;;19.02;11.13;;;;;;;;;;5014842;28;20030;-77
2024/01/05 06:17:09;;;;;;;24.10;11.88;;;;;;;;;;5029095;28;20521;-77
2024/01/05 06:19:35;;;;;;;17.73;11.00;;;;;;;;;;5036011;28;20029;-78
2024/01/05 06:22:01;;;;;;;18.25;11.32;;;;;;;;;;5031236;28;20030;-78
2024/01/05 06:24:29;;;;;;;23.20;10.77;;;;;;;;;;5032004;28;20034;-78
2024/01/05 06:26:55;;;;;;;19.60;11.52;;;;;;;;;;5016461;28;20220;-78
2024/01/05 06:29:21;;;;;;;18.60;11.80;;;;;;;;;;5020287;28;20029;-78
2024/01/05 06:31:47;;;;;;;24.77;12.38;;;;;;;;;;5021692;28;20041;-78
2024/01/05 06:34:13;;;;;;;23.15;12.77;;;;;;;;;;5015736;28;20085;-79
2024/01/05 06:36:39;;;;;;;21.92;12.00;;;;;;;;;;5020225;28;20545;-76
2024/01/05 06:39:06;;;;;;;23.70;12.32;;;;;;;;;;4995741;28;20037;-79
2024/01/05 06:41:32;;;;;;;20.02;13.27;;;;;;;;;;4996556;28;20042;-79
2024/01/05 06:43:58;;;;;;;25.75;13.82;;;;;;;;;;5021316;28;20105;-77
2024/01/05 06:46:24;;;;;;;19.98;12.73;;;;;;;;;;4994728;28;20058;-78
2024/01/05 06:48:50;;;;;;;24.27;12.95;;;;;;;;;;5018113;28;20202;-78
2024/01/05 06:51:16;;;;;;;19.52;10.90;;;;;;;;;;5014085;28;20739;-78
2024/01/05 06:53:42;;;;;;;21.00;11.90;;;;;;;;;;5020437;28;20053;-78
2024/01/05 06:56:10;;;;;;;18.58;12.25;;;;;;;;;;5024960;28;20486;-78
2024/01/05 06:58:36;;;;;;;23.00;13.38;;;;;;;;;;5029606;28;20029;-78
2024/01/05 07:01:02;;;;;;;19.33;12.75;;;;;;;;;;5015276;28;20591;-77
2024/01/05 07:03:28;;;;;;;18.45;12.02;;;;;;;;;;5024312;28;20042;-78
2024/01/05 07:05:54;;;;;;;19.35;12.18;;;;;;;;;;5015402;28;20041;-79
2024/01/05 07:08:20;;;;;;;18.35;11.57;;;;;;;;;;5027901;28;20030;-79
2024/01/05 07:10:46;;;;;;;22.55;11.63;;;;;;;;;;5015502;28;20030;-79
2024/01/05 07:13:12;;;;;;;24.83;12.88;;;;;;;;;;5012358;28;20064;-79
2024/01/05 07:15:38;;;;;;;22.73;13.30;;;;;;;;;;5022923;28;20045;-79
2024/01/05 07:18:05;;;;;;;25.02;11.98;;;;;;;;;;5018533;28;20041;-79
2024/01/05 07:20:32;;;;;;;23.40;12.38;;;;;;;;;;5018455;28;20060;-78
2024/01/05 07:22:58;;;;;;;23.13;13.18;;;;;;;;;;5011787;28;20038;-78
2024/01/05 07:25:24;;;;;;;18.55;12.23;;;;;;;;;;5000251;28;20038;-77
2024/01/05 07:27:50;;;;;;;21.15;12.70;;;;;;;;;;5011212;28;20022;-77
2024/01/05 07:30:16;;;;;;;22.45;12.48;;;;;;;;;;5014611;28;20042;-77
2024/01/05 07:32:43;;;;;;;20.80;12.77;;;;;;;;;;5025368;28;20036;-78
2024/01/05 07:35:10;;;;;;;21.75;12.15;;;;;;;;;;5011946;28;20482;-77
2024/01/05 07:37:38;;;;;;;21.20;12.80;;;;;;;;;;5005120;28;20030;-78
2024/01/05 07:40:04;;;;;;;23.35;13.10;;;;;;;;;;4997762;28;20041;-78
2024/01/05 07:42:31;;;;;;;19.45;11.80;;;;;;;;;;5018352;28;20025;-79
2024/01/05 07:45:00;;;;;;;20.90;11.52;;;;;;;;;;5024577;28;20497;-78
2024/01/05 07:47:26;;;;;;;24.48;12.73;;;;;;;;;;5010953;28;20033;-79
2024/01/05 07:49:52;;;;;;;25.70;13.70;;;;;;;;;;5022883;28;20045;-79
2024/01/05 07:52:18;;;;;;;27.65;13.32;;;;;;;;;;5018119;28;20028;-79
2024/01/05 07:54:44;;;;;;;24.40;12.63;;;;;;;;;;5016159;28;20045;-77
2024/01/05 07:57:10;;;;;;;27.05;12.68;;;;;;;;;;5025219;28;20037;-78
2024/01/05 07:59:36;;;;;;;30.63;14.68;;;;;;;;;;5017975;28;20124;-78
2024/01/05 08:02:02;;;;;;;21.25;13.10;;;;;;;;;;5021995;28;20034;-77
2024/01/05 08:04:29;;;;;;;25.02;13.98;;;;;;;;;;5018033;28;20072;-78
2024/01/05 08:06:55;;;;;;;25.73;14.27;;;;;;;;;;5018178;28;20065;-78
2024/01/05 08:09:21;;;;;;;24.38;14.52;;;;;;;;;;5007856;28;20091;-79
2024/01/05 08:11:47;;;;;;;22.50;13.98;;;;;;;;;;5014389;28;20105;-79
2024/01/05 08:14:13;;;;;;;26.23;14.63;;;;;;;;;;5023450;28;20034;-78
2024/01/05 08:16:39;;;;;;;26.67;14.93;;;;;;;;;;5014437;28;20042;-79
2024/01/05 08:19:05;;;;;;;28.38;15.02;;;;;;;;;;5031713;28;20025;-83
2024/01/05 08:21:31;;;;;;;24.75;14.05;;;;;;;;;;5027693;28;20032;-82
2024/01/05 08:23:57;;;;;;;21.83;14.23;;;;;;;;;;5020072;28;20026;-81
2024/01/05 08:26:23;;;;;;;26.45;13.93;;;;;;;;;;5020990;28;20033;-79
2024/01/05 08:28:49;;;;;;;24.42;14.02;;;;;;;;;;5031691;28;20036;-79
2024/01/05 08:31:15;;;;;;;31.33;15.98;;;;;;;;;;5017102;28;20033;-77
2024/01/05 08:33:41;;;;;;;26.02;14.88;;;;;;;;;;5010215;28;20077;-76
2024/01/05 08:36:07;;;;;;;25.38;15.90;;;;;;;;;;5022941;28;20052;-75
2024/01/05 08:38:34;;;;;;;25.40;14.55;;;;;;;;;;5024048;28;20022;-75
2024/01/05 08:41:00;;;;;;;30.58;14.90;;;;;;;;;;5020177;28;20030;-77
2024/01/05 08:43:26;;;;;;;31.50;15.95;;;;;;;;;;5027807;28;20052;-77
2024/01/05 08:45:52;;;;;;;30.05;15.90;;;;;;;;;;5016381;28;20053;-76
2024/01/05 08:48:18;;;;;;;25.75;15.02;;;;;;;;;;5023235;28;20029;-78
2024/01/05 08:50:44;;;;;;;27.58;16.17;;;;;;;;;;5022502;28;20034;-78
2024/01/05 08:53:10;;;;;;;33.55;16.02;;;;;;;;;;5014256;28;20038;-78
2024/01/05 08:55:36;;;;;;;34.15;16.33;;;;;;;;;;5022438;28;20026;-78
2024/01/05 08:58:04;;;;;;;27.50;14.48;;;;;;;;;;5014061;28;20108;-78
2024/01/05 09:00:30;;;;;;;28.80;16.95;;;;;;;;;;5024329;28;20515;-77
2024/01/05 09:02:56;;;;;;;27.52;15.90;;;;;;;;;;5025775;28;20479;-82
2024/01/05 09:05:22;;;;;;;27.15;15.85;;;;;;;;;;5017782;28;20056;-79
2024/01/05 09:07:48;;;;;;;31.65;15.93;;;;;;;;;;5015240;28;20080;-78
2024/01/05 09:10:15;;;;;;;28.50;17.27;;;;;;;;;;5004736;28;20025;-78
2024/01/05 09:12:41;;;;;;;30.23;16.75;;;;;;;;;;5017566;28;20037;-77
2024/01/05 09:15:07;;;;;;;92.32;26.35;;;;;;;;;;5026353;28;20041;-79
2024/01/05 09:17:33;;;;;;;35.90;19.63;;;;;;;;;;5021996;28;20033;-78
2024/01/05 09:19:59;;;;;;;34.05;17.63;;;;;;;;;;5021155;28;20033;-77
2024/01/05 09:22:25;;;;;;;36.17;20.15;;;;;;;;;;5017901;28;20029;-78
2024/01/05 09:24:52;;;;;;;54.72;19.23;;;;;;;;;;5021162;28;20029;-78
2024/01/05 09:27:18;;;;;;;37.20;18.60;;;;;;;;;;5020357;28;20076;-78
2024/01/05 09:29:44;;;;;;;25.98;16.30;;;;;;;;;;5032695;28;20026;-79
2024/01/05 09:32:10;;;;;;;36.20;17.67;;;;;;;;;;5022650;28;20030;-77
2024/01/05 09:34:36;;;;;;;32.83;18.80;;;;;;;;;;5019235;28;20070;-79
2024/01/05 09:37:02;;;;;;;30.63;18.65;;;;;;;;;;5024452;28;20032;-78
2024/01/05 09:39:28;;;;;;;50.67;20.75;;;;;;;;;;5013932;28;20108;-80
2024/01/05 09:41:54;;;;;;;28.20;16.88;;;;;;;;;;5015813;28;20030;-78
2024/01/05 09:44:21;;;;;;;34.10;17.08;;;;;;;;;;5025807;28;20029;-79
2024/01/05 09:46:47;;;;;;;32.55;16.45;;;;;;;;;;5026939;28;20037;-78
2024/01/05 09:49:17;;;;;;;26.85;14.82;;;;;;;;;;5028313;28;20026;-77
2024/01/05 09:51:44;;;;;;;31.73;16.90;;;;;;;;;;5017201;28;20049;-77
2024/01/05 09:54:11;;;;;;;29.73;16.90;;;;;;;;;;5016743;28;20454;-78
2024/01/05 09:56:39;;;;;;;30.83;15.30;;;;;;;;;;5001205;28;20030;-78
2024/01/05 09:59:06;;;;;;;31.80;16.48;;;;;;;;;;5024680;28;20030;-79
2024/01/05 10:01:35;;;;;;;31.13;16.25;;;;;;;;;;5021956;28;20033;-79
2024/01/05 10:04:02;;;;;;;28.95;15.77;;;;;;;;;;5006570;28;20042;-78
2024/01/05 10:06:30;;;;;;;24.35;14.73;;;;;;;;;;5021110;28;20403;-78
2024/01/05 10:08:56;;;;;;;23.92;15.32;;;;;;;;;;5017199;28;20118;-79
2024/01/05 10:11:31;;;;;;;22.73;14.98;;;;;;;;;;5022700;28;20112;-79
2024/01/05 10:14:01;;;;;;;27.40;14.63;;;;;;;;;;5016493;28;20037;-79
2024/01/05 10:16:37;;;;;;;24.25;13.75;;;;;;;;;;5015727;28;20030;-79
2024/01/05 10:19:16;;;;;;;26.85;13.98;;;;;;;;;;5023037;28;20140;-78
2024/01/05 10:21:46;;;;;;;32.20;16.02;;;;;;;;;;5027079;28;20030;-78
2024/01/05 10:24:15;;;;;;;23.98;14.52;;;;;;;;;;5013752;28;20116;-78
2024/01/05 10:26:42;;;;;;;27.67;14.57;;;;;;;;;;5021205;28;20088;-78
2024/01/05 10:29:15;;;;;;;25.50;16.23;;;;;;;;;;5012844;28;20029;-78
2024/01/05 10:31:41;;;;;;;26.70;14.63;;;;;;;;;;5022197;28;20108;-78
2024/01/05 10:34:08;;;;;;;27.88;15.18;;;;;;;;;;5027596;28;20037;-78
2024/01/05 10:36:34;;;;;;;22.92;13.70;;;;;;;;;;5031486;28;20485;-78
2024/01/05 10:39:02;;;;;;;21.30;12.60;;;;;;;;;;5016857;28;20089;-78
2024/01/05 10:41:29;;;;;;;22.42;12.93;;;;;;;;;;5025281;28;20030;-78
2024/01/05 10:43:56;;;;;;;27.23;14.48;;;;;;;;;;5026844;28;20029;-79
2024/01/05 10:46:24;;;;;;;21.63;13.70;;;;;;;;;;5013506;28;20041;-78
2024/01/05 10:48:50;;;;;;;25.25;14.40;;;;;;;;;;5004909;28;20038;-78
2024/01/05 10:51:22;;;;;;;24.10;14.45;;;;;;;;;;5022814;28;20030;-78
2024/01/05 10:53:49;;;;;;;24.77;14.52;;;;;;;;;;5018379;28;20041;-77
2024/01/05 10:56:17;;;;;;;26.10;14.90;;;;;;;;;;5019873;28;20364;-77
2024/01/05 10:58:44;;;;;;;24.38;14.02;;;;;;;;;;5020212;28;20041;-77
2024/01/05 11:01:13;;;;;;;22.90;13.32;;;;;;;;;;5016076;28;20026;-77
2024/01/05 11:03:41;;;;;;;25.48;14.02;;;;;;;;;;5013112;28;20048;-78
2024/01/05 11:06:08;;;;;;;26.23;13.68;;;;;;;;;;5021466;28;20045;-76
2024/01/05 11:08:34;;;;;;;25.38;12.90;;;;;;;;;;5014108;28;20464;-76
2024/01/05 11:11:07;;;;;;;24.27;14.20;;;;;;;;;;5022233;28;20026;-79
2024/01/05 11:13:33;;;;;;;25.52;14.63;;;;;;;;;;5011044;28;20124;-76
2024/01/05 11:15:59;;;;;;;25.20;14.48;;;;;;;;;;5025355;28;20109;-77
2024/01/05 11:18:38;;;;;;;22.08;13.93;;;;;;;;;;5029072;28;20120;-78
2024/01/05 11:21:04;;;;;;;28.42;14.02;;;;;;;;;;5020046;28;20021;-77
2024/01/05 11:23:32;;;;;;;23.40;14.38;;;;;;;;;;5028001;28;20029;-76
2024/01/05 11:25:58;;;;;;;21.85;12.80;;;;;;;;;;5030645;28;20026;-76
2024/01/05 11:28:36;;;;;;;26.13;14.18;;;;;;;;;;5030443;28;20053;-77
2024/01/05 11:31:02;;;;;;;25.83;14.55;;;;;;;;;;5030808;28;20030;-78
2024/01/05 11:33:46;;;;;;;31.02;16.65;;;;;;;;;;5014689;28;20034;-74
2024/01/05 11:36:13;;;;;;;42.88;24.77;;;;;;;;;;5015621;28;20959;-79
2024/01/05 11:38:47;;;;;;;23.13;13.63;;;;;;;;;;5017601;28;20032;-76
2024/01/05 11:41:19;;;;;;;21.35;13.23;;;;;;;;;;5028430;28;20064;-79
2024/01/05 11:43:45;;;;;;;;;;;;;;;;;;5016598;28;20053;-81
2024/01/05 11:46:12;;;;;;;25.58;13.00;;;;;;;;;;5017847;28;20010;-77
2024/01/05 11:48:38;;;;;;;24.55;13.48;;;;;;;;;;5020524;28;20033;-80
2024/01/05 11:51:04;;;;;;;21.77;12.13;;;;;;;;;;5028459;28;20029;-81
2024/01/05 11:53:31;;;;;;;22.33;13.23;;;;;;;;;;5022207;28;20065;-78
2024/01/05 11:55:58;;;;;;;23.20;13.23;;;;;;;;;;5023061;28;20025;-81
2024/01/05 11:58:30;;;;;;;22.25;12.18;;;;;;;;;;5015232;28;20064;-79
2024/01/05 12:00:57;;;;;;;72.43;36.20;;;;;;;;;;5020799;28;20207;-81
2024/01/05 12:03:26;;;;;;;80.55;41.50;;;;;;;;;;5021462;28;20567;-77
2024/01/05 12:05:54;;;;;;;27.80;13.02;;;;;;;;;;5011566;28;20149;-78
2024/01/05 12:08:21;;;;;;;51.45;23.95;;;;;;;;;;5013583;28;20033;-78
2024/01/05 12:10:52;;;;;;;45.22;21.75;;;;;;;;;;5015238;28;20050;-79
2024/01/05 12:13:24;;;;;;;22.10;13.57;;;;;;;;;;5006681;28;20507;-80
2024/01/05 12:16:19;;;;;;;17.23;11.63;;;;;;;;;;5024818;28;20029;-79
2024/01/05 12:18:47;;;;;;;18.58;11.30;;;;;;;;;;5002843;28;20042;-79
2024/01/05 12:21:19;;;;;;;20.40;11.27;;;;;;;;;;5012550;28;20037;-77
2024/01/05 12:23:55;;;;;;;18.05;11.05;;;;;;;;;;5015996;28;20116;-77
2024/01/05 12:26:21;;;;;;;22.15;11.68;;;;;;;;;;5027429;28;20467;-76
2024/01/05 12:28:48;;;;;;;21.30;11.10;;;;;;;;;;5011584;28;20103;-76
2024/01/05 12:31:14;;;;;;;16.60;9.77;;;;;;;;;;5022872;28;20030;-76
2024/01/05 12:33:41;;;;;;;14.30;8.90;;;;;;;;;;5029456;28;20478;-76
2024/01/05 12:36:14;;;;;;;18.20;10.13;;;;;;;;;;5036997;28;20494;-76
2024/01/05 12:38:40;;;;;;;15.30;8.95;;;;;;;;;;5001053;28;20063;-77
2024/01/05 12:41:16;;;;;;;16.95;8.98;;;;;;;;;;5026171;28;20034;-77
2024/01/05 12:43:46;;;;;;;13.68;8.23;;;;;;;;;;5010457;28;20096;-77
2024/01/05 12:46:15;;;;;;;15.88;9.55;;;;;;;;;;5020625;28;20033;-76
2024/01/05 12:48:41;;;;;;;14.13;8.45;;;;;;;;;;5044039;28;20022;-77
2024/01/05 12:51:08;;;;;;;15.45;8.85;;;;;;;;;;5006852;28;20047;-76
2024/01/05 12:53:35;;;;;;;16.00;9.73;;;;;;;;;;5029275;28;20029;-77
2024/01/05 12:56:08;;;;;;;14.63;9.25;;;;;;;;;;5028506;28;20569;-77
2024/01/05 12:58:44;;;;;;;14.40;9.60;;;;;;;;;;5028572;28;20021;-77
2024/01/05 13:01:19;;;;;;;19.83;9.45;;;;;;;;;;5022489;28;20117;-77
2024/01/05 13:04:05;;;;;;;15.50;9.30;;;;;;;;;;5028209;28;20535;-77
2024/01/05 13:06:31;;;;;;;14.43;8.93;;;;;;;;;;5013652;28;20057;-78
2024/01/05 13:08:57;;;;;;;11.75;8.25;;;;;;;;;;5034023;28;20064;-77
2024/01/05 13:11:23;;;;;;;15.82;9.57;;;;;;;;;;5023531;28;20084;-77
2024/01/05 13:13:50;;;;;;;16.23;9.02;;;;;;;;;;5013777;28;20034;-77
2024/01/05 13:16:16;;;;;;;19.30;8.77;;;;;;;;;;5023969;28;20017;-77
2024/01/05 13:18:42;;;;;;;14.07;7.82;;;;;;;;;;5027907;28;20037;-77
2024/01/05 13:21:08;;;;;;;13.20;7.25;;;;;;;;;;5029794;28;20132;-77
2024/01/05 13:23:35;;;;;;;12.70;7.28;;;;;;;;;;5039202;28;20080;-77
2024/01/05 13:26:01;;;;;;;16.73;7.38;;;;;;;;;;5022588;28;20154;-77
2024/01/05 13:28:28;;;;;;;12.70;7.32;;;;;;;;;;5013377;28;20034;-77
2024/01/05 13:30:54;;;;;;;9.93;5.63;;;;;;;;;;5019915;28;20052;-77
2024/01/05 13:33:20;;;;;;;6.25;3.80;;;;;;;;;;5022159;28;20038;-77
2024/01/05 13:35:48;;;;;;;8.07;4.25;;;;;;;;;;5020818;28;20040;-76
2024/01/05 13:38:18;;;;;;;3.78;3.25;;;;;;;;;;5030946;28;20056;-77
2024/01/05 13:40:44;;;;;;;3.33;2.33;;;;;;;;;;5022227;28;20026;-77
2024/01/05 13:43:10;;;;;;;3.10;2.08;;;;;;;;;;5013244;28;20109;-77
2024/01/05 13:45:39;;;;;;;2.13;1.92;;;;;;;;;;5031007;28;20036;-77
2024/01/05 13:48:05;;;;;;;2.10;1.80;;;;;;;;;;5032566;28;20082;-77
2024/01/05 13:50:31;;;;;;;3.22;1.67;;;;;;;;;;5031871;28;20108;-77
2024/01/05 13:52:58;;;;;;;2.17;1.42;;;;;;;;;;5032239;28;20041;-77
2024/01/05 13:55:24;;;;;;;1.67;1.42;;;;;;;;;;5021734;28;20067;-78
2024/01/05 13:57:51;;;;;;;1.50;1.13;;;;;;;;;;5032237;28;20037;-77
2024/01/05 14:00:17;;;;;;;2.20;1.30;;;;;;;;;;5025557;28;20455;-77
2024/01/05 14:02:43;;;;;;;4.25;2.80;;;;;;;;;;5032467;28;20026;-77
2024/01/05 14:05:09;;;;;;;5.97;2.47;;;;;;;;;;5015517;28;20038;-78
2024/01/05 14:07:37;;;;;;;7.88;3.63;;;;;;;;;;5024940;28;20399;-78
2024/01/05 14:10:05;;;;;;;6.65;4.80;;;;;;;;;;5032102;28;20029;-77
2024/01/05 14:12:32;;;;;;;12.95;5.88;;;;;;;;;;5032023;28;20033;-78
2024/01/05 14:14:58;;;;;;;10.88;7.63;;;;;;;;;;5031079;28;20159;-78
2024/01/05 14:17:24;;;;;;;9.95;7.30;;;;;;;;;;5031494;28;20459;-78
2024/01/05 14:19:50;;;;;;;14.50;8.38;;;;;;;;;;5020492;28;20048;-78
2024/01/05 14:22:18;;;;;;;14.27;8.32;;;;;;;;;;5031758;28;20018;-77